createdAt,value
2018-01-24T00:00:27.677Z,0
2018-01-24T00:00:59.654Z,0
2018-01-24T00:01:31.684Z,0
2018-01-24T00:02:03.675Z,0
2018-01-24T00:02:35.790Z,0
2018-01-24T00:03:07.953Z,0
2018-01-24T00:03:40.935Z,0
2018-01-24T00:04:13.011Z,0
2018-01-24T00:04:45.053Z,0
2018-01-24T00:05:17.089Z,0
2018-01-24T00:05:49.128Z,0
2018-01-24T00:06:21.106Z,0
2018-01-24T00:06:53.131Z,0
2018-01-24T00:07:25.150Z,0
2018-01-24T00:07:57.176Z,0
2018-01-24T00:08:29.202Z,0
2018-01-24T00:09:01.321Z,0
2018-01-24T00:09:33.345Z,0
2018-01-24T00:10:05.375Z,0
2018-01-24T00:10:37.380Z,0
2018-01-24T00:11:09.444Z,0
2018-01-24T00:11:41.484Z,0
2018-01-24T00:12:13.516Z,0
2018-01-24T00:12:45.513Z,0
2018-01-24T00:13:17.505Z,0
2018-01-24T00:13:49.474Z,0
2018-01-24T00:14:21.452Z,0
2018-01-24T00:14:53.486Z,0
2018-01-24T00:15:25.476Z,0
2018-01-24T00:15:57.485Z,0
2018-01-24T00:16:29.595Z,0
2018-01-24T00:17:01.576Z,0
2018-01-24T00:17:33.603Z,0
2018-01-24T00:18:05.602Z,0
2018-01-24T00:18:37.570Z,0
2018-01-24T00:19:09.610Z,0
2018-01-24T00:19:41.619Z,0
2018-01-24T00:20:13.606Z,0
2018-01-24T00:20:45.583Z,0
2018-01-24T00:21:17.598Z,0
2018-01-24T00:21:49.589Z,0
2018-01-24T00:22:21.701Z,0
2018-01-24T00:22:53.718Z,0
2018-01-24T00:23:25.680Z,0
2018-01-24T00:23:57.702Z,0
2018-01-24T00:24:29.703Z,0
2018-01-24T00:25:01.708Z,0
2018-01-24T00:25:33.789Z,0
2018-01-24T00:26:05.800Z,0
2018-01-24T00:26:37.806Z,0
2018-01-24T00:27:09.844Z,0
2018-01-24T00:27:41.956Z,0
2018-01-24T00:28:13.914Z,0
2018-01-24T00:28:45.998Z,0
2018-01-24T00:29:18.013Z,0
2018-01-24T00:29:49.965Z,0
2018-01-24T00:30:22.016Z,0
2018-01-24T00:30:54.024Z,0
2018-01-24T00:31:26.022Z,0
2018-01-24T00:31:58.034Z,0
2018-01-24T00:32:30.065Z,0
2018-01-24T00:33:02.043Z,0
2018-01-24T00:33:34.021Z,0
2018-01-24T00:34:06.058Z,0
2018-01-24T00:34:38.084Z,0
2018-01-24T00:35:10.104Z,0
2018-01-24T00:35:42.140Z,0
2018-01-24T00:36:15.124Z,0
2018-01-24T00:36:47.951Z,0
2018-01-24T00:37:19.958Z,0
2018-01-24T00:37:52.030Z,0
2018-01-24T00:38:24.058Z,0
2018-01-24T00:38:56.047Z,0
2018-01-24T00:39:28.137Z,0
2018-01-24T00:40:00.129Z,0
2018-01-24T00:40:32.108Z,0
2018-01-24T00:41:04.131Z,0
2018-01-24T00:41:36.142Z,0
2018-01-24T00:42:08.160Z,0
2018-01-24T00:42:40.179Z,0
2018-01-24T00:43:12.180Z,0
2018-01-24T00:43:44.187Z,0
2018-01-24T00:44:16.198Z,0
2018-01-24T00:44:48.213Z,0
2018-01-24T00:45:20.180Z,0
2018-01-24T00:45:52.908Z,0
2018-01-24T00:46:24.900Z,0
2018-01-24T00:46:56.885Z,0
2018-01-24T00:47:28.958Z,0
2018-01-24T00:48:00.975Z,0
2018-01-24T00:48:32.940Z,0
2018-01-24T00:49:04.999Z,0
2018-01-24T00:49:37.015Z,0
2018-01-24T00:50:09.014Z,0
2018-01-24T00:50:41.096Z,0
2018-01-24T00:51:13.091Z,0
2018-01-24T00:51:45.099Z,0
2018-01-24T00:52:17.127Z,0
2018-01-24T00:52:49.130Z,0
2018-01-24T00:53:21.125Z,0
2018-01-24T00:53:53.947Z,0
2018-01-24T00:54:25.989Z,0
2018-01-24T00:54:58.826Z,0
2018-01-24T00:55:30.838Z,0
2018-01-24T00:56:02.837Z,0
2018-01-24T00:56:34.968Z,0
2018-01-24T00:57:06.982Z,0
2018-01-24T00:57:39.001Z,0
2018-01-24T00:58:11.048Z,0
2018-01-24T00:58:43.012Z,0
2018-01-24T00:59:15.153Z,0
2018-01-24T00:59:47.200Z,0
2018-01-24T01:00:19.280Z,0
2018-01-24T01:00:51.253Z,0
2018-01-24T01:01:23.320Z,0
2018-01-24T01:01:55.306Z,0
2018-01-24T01:02:27.304Z,0
2018-01-24T01:02:59.299Z,0
2018-01-24T01:03:31.294Z,0
2018-01-24T01:04:03.830Z,0
2018-01-24T01:04:35.848Z,0
2018-01-24T01:05:07.850Z,0
2018-01-24T01:05:39.810Z,0
2018-01-24T01:06:11.858Z,0
2018-01-24T01:06:43.887Z,0
2018-01-24T01:07:15.962Z,0
2018-01-24T01:07:48.016Z,0
2018-01-24T01:08:20.036Z,0
2018-01-24T01:08:52.101Z,0
2018-01-24T01:09:24.145Z,0
2018-01-24T01:09:56.211Z,0
2018-01-24T01:10:28.240Z,0
2018-01-24T01:11:00.243Z,0
2018-01-24T01:11:32.237Z,0
2018-01-24T01:12:04.241Z,0
2018-01-24T01:12:36.251Z,0
2018-01-24T01:13:08.264Z,0
2018-01-24T01:13:40.235Z,0
2018-01-24T01:14:12.250Z,0
2018-01-24T01:14:44.245Z,0
2018-01-24T01:15:16.271Z,0
2018-01-24T01:15:48.289Z,0
2018-01-24T01:16:20.289Z,0
2018-01-24T01:16:52.324Z,0
2018-01-24T01:17:24.303Z,0
2018-01-24T01:17:56.313Z,0
2018-01-24T01:18:28.288Z,0
2018-01-24T01:19:00.422Z,0
2018-01-24T01:19:32.445Z,0
2018-01-24T01:20:04.437Z,0
2018-01-24T01:20:36.461Z,0
2018-01-24T01:21:08.522Z,0
2018-01-24T01:21:40.516Z,0
2018-01-24T01:22:12.531Z,0
2018-01-24T01:22:44.554Z,0
2018-01-24T01:23:16.544Z,0
2018-01-24T01:23:48.566Z,0
2018-01-24T01:24:20.580Z,0
2018-01-24T01:24:53.249Z,0
2018-01-24T01:25:25.336Z,0
2018-01-24T01:25:57.376Z,0
2018-01-24T01:26:29.412Z,0
2018-01-24T01:27:01.460Z,0
2018-01-24T01:27:34.339Z,0
2018-01-24T01:28:07.257Z,0
2018-01-24T01:28:39.268Z,0
2018-01-24T01:29:11.284Z,0
2018-01-24T01:29:43.237Z,0
2018-01-24T01:30:15.197Z,0
2018-01-24T01:30:47.228Z,0
2018-01-24T01:31:19.266Z,0
2018-01-24T01:31:51.273Z,0
2018-01-24T01:32:23.311Z,0
2018-01-24T01:32:55.333Z,0
2018-01-24T01:33:27.352Z,0
2018-01-24T01:33:59.357Z,0
2018-01-24T01:34:31.420Z,0
2018-01-24T01:35:03.396Z,0
2018-01-24T01:35:35.403Z,0
2018-01-24T01:36:07.449Z,0
2018-01-24T01:36:39.428Z,0
2018-01-24T01:37:11.465Z,0
2018-01-24T01:37:43.585Z,0
2018-01-24T01:38:15.605Z,0
2018-01-24T01:38:47.602Z,0
2018-01-24T01:39:19.594Z,0
2018-01-24T01:39:51.618Z,0
2018-01-24T01:40:23.617Z,0
2018-01-24T01:40:55.620Z,0
2018-01-24T01:41:27.585Z,0
2018-01-24T01:41:59.570Z,0
2018-01-24T01:42:31.535Z,0
2018-01-24T01:43:03.535Z,0
2018-01-24T01:43:36.236Z,0
2018-01-24T01:44:08.258Z,0
2018-01-24T01:44:40.263Z,0
2018-01-24T01:45:12.286Z,0
2018-01-24T01:45:44.307Z,0
2018-01-24T01:46:16.316Z,0
2018-01-24T01:46:48.352Z,0
2018-01-24T01:47:20.437Z,0
2018-01-24T01:47:52.472Z,0
2018-01-24T01:48:24.427Z,0
2018-01-24T01:48:56.448Z,0
2018-01-24T01:49:28.464Z,0
2018-01-24T01:50:00.478Z,0
2018-01-24T01:50:32.440Z,0
2018-01-24T01:51:04.465Z,0
2018-01-24T01:51:36.466Z,0
2018-01-24T01:52:08.493Z,0
2018-01-24T01:52:40.489Z,0
2018-01-24T01:53:12.481Z,0
2018-01-24T01:53:44.482Z,0
2018-01-24T01:54:16.437Z,0
2018-01-24T01:54:48.460Z,0
2018-01-24T01:55:20.490Z,0
2018-01-24T01:55:52.519Z,0
2018-01-24T01:56:24.686Z,0
2018-01-24T01:56:56.679Z,0
2018-01-24T01:57:28.665Z,0
2018-01-24T01:58:00.694Z,0
2018-01-24T01:58:32.643Z,0
2018-01-24T01:59:04.627Z,0
2018-01-24T01:59:36.698Z,0
2018-01-24T02:00:08.738Z,0
2018-01-24T02:00:40.750Z,0
2018-01-24T02:01:12.768Z,0
2018-01-24T02:01:44.801Z,0
2018-01-24T02:02:16.804Z,0
2018-01-24T02:02:48.791Z,0
2018-01-24T02:03:20.809Z,0
2018-01-24T02:03:52.838Z,0
2018-01-24T02:04:24.877Z,0
2018-01-24T02:04:56.897Z,0
2018-01-24T02:05:28.921Z,0
2018-01-24T02:06:00.914Z,0
2018-01-24T02:06:32.945Z,0
2018-01-24T02:07:04.943Z,0
2018-01-24T02:07:37.014Z,0
2018-01-24T02:08:09.011Z,0
2018-01-24T02:08:41.057Z,0
2018-01-24T02:09:13.083Z,0
2018-01-24T02:09:45.982Z,0
2018-01-24T02:10:18.006Z,0
2018-01-24T02:10:49.975Z,0
2018-01-24T02:11:22.872Z,0
2018-01-24T02:11:55.637Z,0
2018-01-24T02:12:27.645Z,0
2018-01-24T02:12:59.674Z,0
2018-01-24T02:13:31.656Z,0
2018-01-24T02:14:03.667Z,0
2018-01-24T02:14:35.722Z,0
2018-01-24T02:15:07.756Z,0
2018-01-24T02:15:39.728Z,0
2018-01-24T02:16:11.753Z,0
2018-01-24T02:16:43.770Z,0
2018-01-24T02:17:15.744Z,0
2018-01-24T02:17:47.774Z,0
2018-01-24T02:18:19.902Z,0
2018-01-24T02:18:51.923Z,0
2018-01-24T02:19:24.895Z,0
2018-01-24T02:19:57.656Z,0
2018-01-24T02:20:29.679Z,0
2018-01-24T02:21:01.707Z,0
2018-01-24T02:21:34.368Z,0
2018-01-24T02:22:06.352Z,0
2018-01-24T02:22:39.276Z,0
2018-01-24T02:23:11.284Z,0
2018-01-24T02:23:43.312Z,0
2018-01-24T02:24:15.346Z,0
2018-01-24T02:24:47.338Z,0
2018-01-24T02:25:19.363Z,0
2018-01-24T02:25:51.373Z,0
2018-01-24T02:26:23.355Z,0
2018-01-24T02:26:55.961Z,0
2018-01-24T02:27:27.950Z,0
2018-01-24T02:27:59.969Z,0
2018-01-24T02:28:31.993Z,0
2018-01-24T02:29:04.011Z,0
2018-01-24T02:29:35.989Z,0
2018-01-24T02:30:08.106Z,0
2018-01-24T02:30:40.143Z,0
2018-01-24T02:31:12.175Z,0
2018-01-24T02:31:44.198Z,0
2018-01-24T02:32:16.883Z,0
2018-01-24T02:32:48.917Z,0
2018-01-24T02:33:20.960Z,0
2018-01-24T02:33:52.954Z,0
2018-01-24T02:34:24.975Z,0
2018-01-24T02:34:56.932Z,0
2018-01-24T02:35:28.954Z,0
2018-01-24T02:36:00.989Z,0
2018-01-24T02:36:32.958Z,0
2018-01-24T02:37:04.982Z,0
2018-01-24T02:37:37.438Z,0
2018-01-24T02:38:09.437Z,0
2018-01-24T02:38:41.412Z,0
2018-01-24T02:39:13.445Z,0
2018-01-24T02:39:45.461Z,0
2018-01-24T02:40:17.522Z,0
2018-01-24T02:40:49.532Z,0
2018-01-24T02:41:21.530Z,0
2018-01-24T02:41:53.535Z,0
2018-01-24T02:42:25.524Z,0
2018-01-24T02:42:57.566Z,0
2018-01-24T02:43:29.544Z,0
2018-01-24T02:44:01.540Z,0
2018-01-24T02:44:33.633Z,0
2018-01-24T02:45:05.646Z,0
2018-01-24T02:45:37.691Z,0
2018-01-24T02:46:09.710Z,0
2018-01-24T02:46:41.829Z,0
2018-01-24T02:47:14.785Z,0
2018-01-24T02:47:46.776Z,0
2018-01-24T02:48:18.780Z,0
2018-01-24T02:48:50.780Z,0
2018-01-24T02:49:22.800Z,0
2018-01-24T02:49:54.798Z,0
2018-01-24T02:50:26.847Z,0
2018-01-24T02:50:58.853Z,0
2018-01-24T02:51:30.840Z,0
2018-01-24T02:52:02.872Z,0
2018-01-24T02:52:34.885Z,0
2018-01-24T02:53:06.925Z,0
2018-01-24T02:53:38.933Z,0
2018-01-24T02:54:10.977Z,0
2018-01-24T02:54:42.977Z,0
2018-01-24T02:55:14.974Z,0
2018-01-24T02:55:47.010Z,0
2018-01-24T02:56:19.054Z,0
2018-01-24T02:56:51.045Z,0
2018-01-24T02:57:23.066Z,0
2018-01-24T02:57:55.038Z,0
2018-01-24T02:58:27.043Z,0
2018-01-24T02:58:59.896Z,0
2018-01-24T02:59:31.909Z,0
2018-01-24T03:00:03.938Z,0
2018-01-24T03:00:35.941Z,0
2018-01-24T03:01:07.998Z,0
2018-01-24T03:01:40.144Z,0
2018-01-24T03:02:12.816Z,0
2018-01-24T03:02:44.850Z,0
2018-01-24T03:03:16.816Z,0
2018-01-24T03:03:48.844Z,0
2018-01-24T03:04:20.893Z,0
2018-01-24T03:04:52.848Z,0
2018-01-24T03:05:24.926Z,0
2018-01-24T03:05:56.919Z,0
2018-01-24T03:06:28.886Z,0
2018-01-24T03:07:00.982Z,0
2018-01-24T03:07:32.948Z,0
2018-01-24T03:08:04.974Z,0
2018-01-24T03:08:37.019Z,0
2018-01-24T03:09:08.998Z,0
2018-01-24T03:09:41.035Z,0
2018-01-24T03:10:13.088Z,0
2018-01-24T03:10:45.099Z,0
2018-01-24T03:11:17.114Z,0
2018-01-24T03:11:49.125Z,0
2018-01-24T03:12:21.155Z,0
2018-01-24T03:12:53.171Z,0
2018-01-24T03:13:25.221Z,0
2018-01-24T03:13:57.213Z,0
2018-01-24T03:14:29.212Z,0
2018-01-24T03:15:01.220Z,0
2018-01-24T03:15:33.209Z,0
2018-01-24T03:16:05.226Z,0
2018-01-24T03:16:37.234Z,0
2018-01-24T03:17:09.242Z,0
2018-01-24T03:17:42.191Z,0
2018-01-24T03:18:14.686Z,0
2018-01-24T03:18:46.704Z,0
2018-01-24T03:19:18.702Z,0
2018-01-24T03:19:50.690Z,0
2018-01-24T03:20:22.660Z,0
2018-01-24T03:20:54.676Z,0
2018-01-24T03:21:26.677Z,0
2018-01-24T03:21:58.690Z,0
2018-01-24T03:22:30.745Z,0
2018-01-24T03:23:02.739Z,0
2018-01-24T03:23:34.772Z,0
2018-01-24T03:24:07.626Z,0
2018-01-24T03:24:39.744Z,0
2018-01-24T03:25:11.728Z,0
2018-01-24T03:25:43.722Z,0
2018-01-24T03:26:15.720Z,0
2018-01-24T03:26:47.682Z,0
2018-01-24T03:27:19.696Z,0
2018-01-24T03:27:51.687Z,0
2018-01-24T03:28:23.675Z,0
2018-01-24T03:28:56.301Z,0
2018-01-24T03:29:28.363Z,0
2018-01-24T03:30:00.402Z,0
2018-01-24T03:30:32.418Z,0
2018-01-24T03:31:04.423Z,0
2018-01-24T03:31:36.429Z,0
2018-01-24T03:32:08.455Z,0
2018-01-24T03:32:40.492Z,0
2018-01-24T03:33:13.225Z,0
2018-01-24T03:33:46.051Z,0
2018-01-24T03:34:18.937Z,0
2018-01-24T03:34:50.931Z,0
2018-01-24T03:35:22.942Z,0
2018-01-24T03:35:54.956Z,0
2018-01-24T03:36:26.975Z,0
2018-01-24T03:36:59.007Z,0
2018-01-24T03:37:31.047Z,0
2018-01-24T03:38:03.084Z,0
2018-01-24T03:38:35.078Z,0
2018-01-24T03:39:07.188Z,0
2018-01-24T03:39:39.195Z,0
2018-01-24T03:40:11.219Z,0
2018-01-24T03:40:43.249Z,0
2018-01-24T03:41:15.259Z,0
2018-01-24T03:41:47.290Z,0
2018-01-24T03:42:19.357Z,0
2018-01-24T03:42:51.345Z,0
2018-01-24T03:43:23.360Z,0
2018-01-24T03:43:55.458Z,0
2018-01-24T03:44:28.000Z,0
2018-01-24T03:45:00.003Z,0
2018-01-24T03:45:32.081Z,0
2018-01-24T03:46:04.105Z,0
2018-01-24T03:46:37.050Z,0
2018-01-24T03:47:09.014Z,0
2018-01-24T03:47:41.857Z,0
2018-01-24T03:48:13.954Z,0
2018-01-24T03:48:45.949Z,0
2018-01-24T03:49:17.972Z,0
2018-01-24T03:49:49.958Z,0
2018-01-24T03:50:22.008Z,0
2018-01-24T03:50:54.024Z,0
2018-01-24T03:51:26.098Z,0
2018-01-24T03:51:58.097Z,0
2018-01-24T03:52:30.150Z,0
2018-01-24T03:53:02.169Z,0
2018-01-24T03:53:34.177Z,0
2018-01-24T03:54:06.214Z,0
2018-01-24T03:54:38.246Z,0
2018-01-24T03:55:10.226Z,0
2018-01-24T03:55:42.403Z,0
2018-01-24T03:56:14.438Z,0
2018-01-24T03:56:46.431Z,0
2018-01-24T03:57:18.422Z,0
2018-01-24T03:57:50.386Z,0
2018-01-24T03:58:23.306Z,0
2018-01-24T03:58:55.293Z,0
2018-01-24T03:59:27.356Z,0
2018-01-24T03:59:59.350Z,0
2018-01-24T04:00:31.362Z,0
2018-01-24T04:01:03.450Z,0
2018-01-24T04:01:35.458Z,0
2018-01-24T04:02:07.478Z,0
2018-01-24T04:02:39.477Z,0
2018-01-24T04:03:11.583Z,0
2018-01-24T04:03:43.595Z,0
2018-01-24T04:04:15.635Z,0
2018-01-24T04:04:47.613Z,0
2018-01-24T04:05:20.531Z,0
2018-01-24T04:05:52.553Z,0
2018-01-24T04:06:24.605Z,0
2018-01-24T04:06:56.691Z,0
2018-01-24T04:07:28.721Z,0
2018-01-24T04:08:00.811Z,0
2018-01-24T04:08:32.823Z,0
2018-01-24T04:09:04.849Z,0
2018-01-24T04:09:36.889Z,0
2018-01-24T04:10:08.918Z,0
2018-01-24T04:10:40.929Z,0
2018-01-24T04:11:12.944Z,0
2018-01-24T04:11:44.973Z,0
2018-01-24T04:12:16.972Z,0
2018-01-24T04:12:49.022Z,0
2018-01-24T04:13:21.046Z,0
2018-01-24T04:13:53.033Z,0
2018-01-24T04:14:25.054Z,0
2018-01-24T04:14:57.066Z,0
2018-01-24T04:15:29.539Z,0
2018-01-24T04:16:01.556Z,0
2018-01-24T04:16:34.431Z,0
2018-01-24T04:17:06.449Z,0
2018-01-24T04:17:38.470Z,0
2018-01-24T04:18:10.479Z,0
2018-01-24T04:18:42.467Z,0
2018-01-24T04:19:14.488Z,0
2018-01-24T04:19:47.435Z,0
2018-01-24T04:20:20.219Z,0
2018-01-24T04:20:52.711Z,0
2018-01-24T04:21:24.910Z,0
2018-01-24T04:21:57.434Z,0
2018-01-24T04:22:29.512Z,0
2018-01-24T04:23:02.247Z,0
2018-01-24T04:23:34.226Z,0
2018-01-24T04:24:06.269Z,0
2018-01-24T04:24:38.261Z,0
2018-01-24T04:25:10.226Z,0
2018-01-24T04:25:42.280Z,0
2018-01-24T04:26:14.252Z,0
2018-01-24T04:26:46.283Z,0
2018-01-24T04:27:18.317Z,0
2018-01-24T04:27:50.329Z,0
2018-01-24T04:28:22.356Z,0
2018-01-24T04:28:54.402Z,0
2018-01-24T04:29:26.386Z,0
2018-01-24T04:29:58.420Z,0
2018-01-24T04:30:31.226Z,0
2018-01-24T04:31:03.324Z,0
2018-01-24T04:31:35.319Z,0
2018-01-24T04:32:07.303Z,0
2018-01-24T04:32:39.437Z,0
2018-01-24T04:33:11.435Z,0
2018-01-24T04:33:43.448Z,0
2018-01-24T04:34:15.436Z,0
2018-01-24T04:34:47.414Z,0
2018-01-24T04:35:19.437Z,0
2018-01-24T04:35:51.465Z,0
2018-01-24T04:36:23.456Z,0
2018-01-24T04:36:55.515Z,0
2018-01-24T04:37:27.679Z,0
2018-01-24T04:37:59.873Z,0
2018-01-24T04:38:31.858Z,0
2018-01-24T04:39:03.884Z,0
2018-01-24T04:39:35.904Z,0
2018-01-24T04:40:07.903Z,0
2018-01-24T04:40:39.861Z,0
2018-01-24T04:41:11.883Z,0
2018-01-24T04:41:44.760Z,0
2018-01-24T04:42:16.751Z,0
2018-01-24T04:42:48.763Z,0
2018-01-24T04:43:20.794Z,0
2018-01-24T04:43:52.776Z,0
2018-01-24T04:44:24.808Z,0
2018-01-24T04:44:58.450Z,0
2018-01-24T04:45:30.475Z,0
2018-01-24T04:46:03.389Z,0
2018-01-24T04:46:35.340Z,0
2018-01-24T04:47:07.489Z,0
2018-01-24T04:47:39.480Z,0
2018-01-24T04:48:11.496Z,0
2018-01-24T04:48:44.347Z,0
2018-01-24T04:49:17.246Z,0
2018-01-24T04:49:49.234Z,0
2018-01-24T04:50:21.226Z,0
2018-01-24T04:50:53.241Z,0
2018-01-24T04:51:25.182Z,0
2018-01-24T04:51:57.187Z,0
2018-01-24T04:52:29.168Z,0
2018-01-24T04:53:01.165Z,0
2018-01-24T04:53:33.159Z,0
2018-01-24T04:54:05.375Z,0
2018-01-24T04:54:37.384Z,0
2018-01-24T04:55:09.398Z,0
2018-01-24T04:55:41.978Z,0
2018-01-24T04:56:14.082Z,0
2018-01-24T04:56:46.062Z,0
2018-01-24T04:57:18.074Z,0
2018-01-24T04:57:50.071Z,0
2018-01-24T04:58:22.157Z,0
2018-01-24T04:58:54.159Z,0
2018-01-24T04:59:26.141Z,0
2018-01-24T04:59:58.151Z,0
2018-01-24T05:00:30.203Z,0
2018-01-24T05:01:02.233Z,0
2018-01-24T05:01:34.369Z,0
2018-01-24T05:02:06.396Z,0
2018-01-24T05:02:38.387Z,0
2018-01-24T05:03:10.449Z,0
2018-01-24T05:03:42.462Z,0
2018-01-24T05:04:14.473Z,0
2018-01-24T05:04:46.527Z,0
2018-01-24T05:05:18.525Z,0
2018-01-24T05:05:50.482Z,0
2018-01-24T05:06:22.447Z,0
2018-01-24T05:06:54.474Z,0
2018-01-24T05:07:27.460Z,0
2018-01-24T05:07:59.458Z,0
2018-01-24T05:08:31.478Z,0
2018-01-24T05:09:03.545Z,0
2018-01-24T05:09:35.527Z,0
2018-01-24T05:10:07.559Z,0
2018-01-24T05:10:39.552Z,0
2018-01-24T05:11:11.561Z,0
2018-01-24T05:11:43.592Z,0
2018-01-24T05:12:15.640Z,0
2018-01-24T05:12:47.638Z,0
2018-01-24T05:13:19.761Z,0
2018-01-24T05:13:51.785Z,0
2018-01-24T05:14:23.804Z,0
2018-01-24T05:14:55.815Z,0
2018-01-24T05:15:27.855Z,0
2018-01-24T05:15:59.840Z,0
2018-01-24T05:16:31.868Z,0
2018-01-24T05:17:03.942Z,0
2018-01-24T05:17:35.945Z,0
2018-01-24T05:18:07.985Z,0
2018-01-24T05:18:40.212Z,0
2018-01-24T05:19:12.195Z,0
2018-01-24T05:19:44.271Z,0
2018-01-24T05:20:16.269Z,0
2018-01-24T05:20:48.276Z,0
2018-01-24T05:21:20.325Z,0
2018-01-24T05:21:52.380Z,0
2018-01-24T05:22:24.349Z,0
2018-01-24T05:22:56.460Z,0
2018-01-24T05:23:28.442Z,0
2018-01-24T05:24:00.460Z,0
2018-01-24T05:24:32.485Z,0
2018-01-24T05:25:04.526Z,0
2018-01-24T05:25:36.531Z,0
2018-01-24T05:26:08.533Z,0
2018-01-24T05:26:40.639Z,0
2018-01-24T05:27:12.656Z,0
2018-01-24T05:27:44.687Z,0
2018-01-24T05:28:16.716Z,0
2018-01-24T05:28:48.719Z,0
2018-01-24T05:29:20.707Z,0
2018-01-24T05:29:52.893Z,0
2018-01-24T05:30:24.919Z,0
2018-01-24T05:30:57.871Z,0
2018-01-24T05:31:29.866Z,0
2018-01-24T05:32:01.870Z,0
2018-01-24T05:32:33.925Z,0
2018-01-24T05:33:05.981Z,0
2018-01-24T05:33:37.973Z,0
2018-01-24T05:34:09.986Z,0
2018-01-24T05:34:41.979Z,0
2018-01-24T05:35:13.937Z,0
2018-01-24T05:35:45.941Z,0
2018-01-24T05:36:17.916Z,0
2018-01-24T05:36:49.954Z,0
2018-01-24T05:37:21.976Z,0
2018-01-24T05:37:54.000Z,0
2018-01-24T05:38:26.001Z,0
2018-01-24T05:38:58.179Z,0
2018-01-24T05:39:30.191Z,0
2018-01-24T05:40:02.203Z,0
2018-01-24T05:40:34.213Z,0
2018-01-24T05:41:07.184Z,0
2018-01-24T05:41:39.203Z,0
2018-01-24T05:42:11.256Z,0
2018-01-24T05:42:43.276Z,0
2018-01-24T05:43:15.274Z,0
2018-01-24T05:43:47.351Z,0
2018-01-24T05:44:19.375Z,0
2018-01-24T05:44:51.377Z,0
2018-01-24T05:45:23.389Z,0
2018-01-24T05:45:55.417Z,0
2018-01-24T05:46:27.421Z,0
2018-01-24T05:46:59.984Z,0
2018-01-24T05:47:32.097Z,0
2018-01-24T05:48:04.142Z,0
2018-01-24T05:48:36.142Z,0
2018-01-24T05:49:08.133Z,0
2018-01-24T05:49:40.243Z,0
2018-01-24T05:50:12.298Z,0
2018-01-24T05:50:44.280Z,0
2018-01-24T05:51:16.305Z,0
2018-01-24T05:51:48.368Z,0
2018-01-24T05:52:20.367Z,0
2018-01-24T05:52:52.397Z,0
2018-01-24T05:53:24.427Z,0
2018-01-24T05:53:56.441Z,0
2018-01-24T05:54:28.456Z,0
2018-01-24T05:55:01.211Z,0
2018-01-24T05:55:33.197Z,0
2018-01-24T05:56:05.195Z,0
2018-01-24T05:56:37.214Z,0
2018-01-24T05:57:09.282Z,0
2018-01-24T05:57:41.260Z,0
2018-01-24T05:58:13.232Z,0
2018-01-24T05:58:45.281Z,0
2018-01-24T05:59:17.295Z,0
2018-01-24T05:59:49.297Z,0
2018-01-24T06:00:21.358Z,0
2018-01-24T06:00:53.394Z,0
2018-01-24T06:01:25.386Z,0
2018-01-24T06:01:57.422Z,0
2018-01-24T06:02:29.438Z,0
2018-01-24T06:03:01.427Z,0
2018-01-24T06:03:33.439Z,0
2018-01-24T06:04:05.491Z,0
2018-01-24T06:04:37.485Z,0
2018-01-24T06:05:09.462Z,0
2018-01-24T06:05:42.160Z,0
2018-01-24T06:06:14.158Z,0
2018-01-24T06:06:46.293Z,0
2018-01-24T06:07:18.289Z,0
2018-01-24T06:07:50.270Z,0
2018-01-24T06:08:22.286Z,0
2018-01-24T06:08:54.342Z,0
2018-01-24T06:09:26.363Z,0
2018-01-24T06:09:58.368Z,0
2018-01-24T06:10:30.503Z,0
2018-01-24T06:11:02.471Z,0
2018-01-24T06:11:34.529Z,0
2018-01-24T06:12:06.607Z,0
2018-01-24T06:12:38.594Z,0
2018-01-24T06:13:10.583Z,0
2018-01-24T06:13:42.606Z,0
2018-01-24T06:14:14.582Z,0
2018-01-24T06:14:46.564Z,0
2018-01-24T06:15:18.585Z,0
2018-01-24T06:15:50.605Z,0
2018-01-24T06:16:22.754Z,0
2018-01-24T06:16:54.755Z,0
2018-01-24T06:17:26.770Z,0
2018-01-24T06:17:58.784Z,0
2018-01-24T06:18:30.798Z,0
2018-01-24T06:19:02.827Z,0
2018-01-24T06:19:34.857Z,0
2018-01-24T06:20:06.866Z,0
2018-01-24T06:20:38.860Z,0
2018-01-24T06:21:10.995Z,0
2018-01-24T06:21:43.021Z,0
2018-01-24T06:22:14.989Z,0
2018-01-24T06:22:47.017Z,0
2018-01-24T06:23:19.024Z,0
2018-01-24T06:23:51.029Z,0
2018-01-24T06:24:23.202Z,0
2018-01-24T06:24:55.361Z,0
2018-01-24T06:25:28.142Z,0
2018-01-24T06:26:00.134Z,0
2018-01-24T06:26:32.110Z,0
2018-01-24T06:27:04.187Z,0
2018-01-24T06:27:36.292Z,0
2018-01-24T06:28:08.271Z,0
2018-01-24T06:28:40.299Z,0
2018-01-24T06:29:12.294Z,0
2018-01-24T06:29:44.450Z,0
2018-01-24T06:30:16.550Z,0
2018-01-24T06:30:48.604Z,0
2018-01-24T06:31:20.622Z,0
2018-01-24T06:31:52.656Z,0
2018-01-24T06:32:24.634Z,0
2018-01-24T06:32:56.701Z,0
2018-01-24T06:33:28.767Z,0
2018-01-24T06:34:00.770Z,0
2018-01-24T06:34:32.741Z,0
2018-01-24T06:35:04.744Z,0
2018-01-24T06:35:36.756Z,0
2018-01-24T06:36:08.763Z,0
2018-01-24T06:36:40.880Z,0
2018-01-24T06:37:12.888Z,0
2018-01-24T06:37:44.894Z,0
2018-01-24T06:38:16.994Z,0
2018-01-24T06:38:49.041Z,0
2018-01-24T06:39:21.038Z,0
2018-01-24T06:39:53.059Z,0
2018-01-24T06:40:25.085Z,0
2018-01-24T06:40:57.125Z,0
2018-01-24T06:41:29.179Z,0
2018-01-24T06:42:01.176Z,0
2018-01-24T06:42:33.199Z,0
2018-01-24T06:43:05.299Z,0
2018-01-24T06:43:37.272Z,0
2018-01-24T06:44:09.306Z,0
2018-01-24T06:44:41.283Z,0
2018-01-24T06:45:13.275Z,0
2018-01-24T06:45:45.228Z,0
2018-01-24T06:46:17.250Z,0
2018-01-24T06:46:49.263Z,0
2018-01-24T06:47:21.252Z,0
2018-01-24T06:47:53.333Z,0
2018-01-24T06:48:25.337Z,0
2018-01-24T06:48:57.513Z,0
2018-01-24T06:49:29.665Z,0
2018-01-24T06:50:01.698Z,0
2018-01-24T06:50:33.652Z,0
2018-01-24T06:51:05.637Z,0
2018-01-24T06:51:37.774Z,0
2018-01-24T06:52:09.784Z,0
2018-01-24T06:52:41.814Z,0
2018-01-24T06:53:13.814Z,0
2018-01-24T06:53:45.842Z,0
2018-01-24T06:54:17.852Z,0
2018-01-24T06:54:49.865Z,0
2018-01-24T06:55:21.882Z,0
2018-01-24T06:55:53.887Z,0
2018-01-24T06:56:25.860Z,0
2018-01-24T06:56:57.836Z,0
2018-01-24T06:57:29.904Z,0
2018-01-24T06:58:02.063Z,0
2018-01-24T06:58:34.046Z,0
2018-01-24T06:59:06.155Z,0
2018-01-24T06:59:38.203Z,0
2018-01-24T07:00:10.224Z,0
2018-01-24T07:00:42.271Z,0
2018-01-24T07:01:14.248Z,0
2018-01-24T07:01:46.330Z,0
2018-01-24T07:02:18.533Z,0
2018-01-24T07:02:50.533Z,0
2018-01-24T07:03:22.534Z,0
2018-01-24T07:03:54.564Z,0
2018-01-24T07:04:26.621Z,0
2018-01-24T07:04:58.650Z,0
2018-01-24T07:05:30.613Z,4
2018-01-24T07:06:02.672Z,4
2018-01-24T07:06:34.685Z,4
2018-01-24T07:07:06.712Z,4
2018-01-24T07:07:38.754Z,0
2018-01-24T07:08:10.738Z,0
2018-01-24T07:08:42.728Z,0
2018-01-24T07:09:14.889Z,4
2018-01-24T07:09:46.871Z,4
2018-01-24T07:10:18.918Z,4
2018-01-24T07:10:50.908Z,4
2018-01-24T07:11:22.910Z,4
2018-01-24T07:11:54.921Z,4
2018-01-24T07:12:27.041Z,4
2018-01-24T07:12:59.179Z,4
2018-01-24T07:13:31.174Z,4
2018-01-24T07:14:03.151Z,8
2018-01-24T07:14:35.178Z,8
2018-01-24T07:15:07.201Z,8
2018-01-24T07:15:39.295Z,8
2018-01-24T07:16:11.257Z,8
2018-01-24T07:16:43.258Z,8
2018-01-24T07:17:15.301Z,8
2018-01-24T07:17:47.316Z,8
2018-01-24T07:18:19.320Z,8
2018-01-24T07:18:51.375Z,8
2018-01-24T07:19:23.374Z,8
2018-01-24T07:19:55.397Z,8
2018-01-24T07:20:27.387Z,12
2018-01-24T07:20:59.460Z,8
2018-01-24T07:21:31.508Z,12
2018-01-24T07:22:03.540Z,12
2018-01-24T07:22:35.673Z,12
2018-01-24T07:23:07.720Z,12
2018-01-24T07:23:39.724Z,12
2018-01-24T07:24:18.228Z,12
2018-01-24T07:24:50.228Z,12
2018-01-24T07:25:22.247Z,16
2018-01-24T07:25:54.251Z,16
2018-01-24T07:26:26.340Z,16
2018-01-24T07:26:58.297Z,16
2018-01-24T07:27:30.277Z,12
2018-01-24T07:28:02.407Z,12
2018-01-24T07:28:34.436Z,12
2018-01-24T07:29:06.433Z,16
2018-01-24T07:29:38.486Z,20
2018-01-24T07:30:12.138Z,20
2018-01-24T07:30:44.164Z,16
2018-01-24T07:31:16.139Z,20
2018-01-24T07:31:48.940Z,24
2018-01-24T07:32:21.458Z,20
2018-01-24T07:32:53.934Z,24
2018-01-24T07:33:26.928Z,24
2018-01-24T07:33:58.960Z,28
2018-01-24T07:34:30.983Z,32
2018-01-24T07:35:02.980Z,32
2018-01-24T07:35:34.978Z,32
2018-01-24T07:36:07.007Z,40
2018-01-24T07:36:39.022Z,40
2018-01-24T07:37:11.024Z,44
2018-01-24T07:37:43.015Z,48
2018-01-24T07:38:14.990Z,48
2018-01-24T07:38:47.092Z,48
2018-01-24T07:39:19.095Z,52
2018-01-24T07:39:51.136Z,64
2018-01-24T07:40:23.128Z,64
2018-01-24T07:40:55.653Z,60
2018-01-24T07:41:28.344Z,60
2018-01-24T07:42:00.358Z,56
2018-01-24T07:42:32.956Z,64
2018-01-24T07:43:04.908Z,68
2018-01-24T07:43:37.437Z,68
2018-01-24T07:44:09.359Z,76
2018-01-24T07:44:41.397Z,80
2018-01-24T07:45:13.395Z,84
2018-01-24T07:45:46.162Z,84
2018-01-24T07:46:18.184Z,92
2018-01-24T07:46:50.213Z,92
2018-01-24T07:47:22.159Z,104
2018-01-24T07:47:54.325Z,108
2018-01-24T07:48:26.318Z,112
2018-01-24T07:48:58.302Z,104
2018-01-24T07:49:30.305Z,104
2018-01-24T07:50:02.303Z,108
2018-01-24T07:50:34.289Z,112
2018-01-24T07:51:07.227Z,104
2018-01-24T07:51:39.937Z,116
2018-01-24T07:52:11.946Z,132
2018-01-24T07:52:43.966Z,148
2018-01-24T07:53:16.023Z,160